Wheeler Sack Army Air Field
KGTB : rendu visible

Aérodrome :











RETROUVEZ-NOUS SUR...

 
LOGIN :

S'inscrire | Disclaimer

   EN    FR    IT 

 









Légende :    VFR   VFR Marginal   IFR   IFR Intensif   IFR Très Intensif
Visi : 
Plafond : 
>= 8 km
>= 3000ft
5 à 8 km
1000 à 3000 ft
1500m à 5 km
500 à 1000 ft
800 à 1500m
200 à 500 ft
< 800m
< 200 ft
Symboles :   Orages  Brouillard  Fortes neiges  Fortes précipitations  Vent > 20 kt






- Altitude de l'aérodrome : 688 ft


KGTB - Wheeler Sack Army Air Field

DERNIER METAR :
  • 100806Z AUTO 21014KT 10SM -RA BKN004 BKN010 OVC022 10/07 A2948 RMK AO2 CIG 004V022 BKN004 V FEW SLP987 $

METARs EXPIRÉS :
  • 100756Z AUTO 22011KT 10SM -RA FEW004 SCT010 SCT015 OVC022 10/07 A2948 RMK AO2 RAB50 CIG 021 RWY03 SLP987 P0000 T00980069 $
  • 100656Z AUTO 20015G20KT 10SM OVC022 09/06 A2946 RMK AO2 OVC V BKN SLP980 T00890062 $
  • 100556Z AUTO 20019KT 10SM BKN021 OVC028 09/06 A2945 RMK AO2 BKN V OVC SLP976 6//// T00850058 10089 20063 58001 $

TAF AMD TAF KGTB
Valide du 10 à 05h jusqu'au 11 à 07h UTC


100510Z 1005/1107 22015G25KT 9999 FEW015 OVC021 620709 510104 QNH2945INS
BECMG 1011/1012 24012KT 9999 BKN030 620402 QNH2956INS
BECMG 1016/1017 27012G28KT 9999 SCT030 BKN040 620402 QNH2977INS TX09/1010Z TNM02/1101Z



MET'MAP, la Météo Aéronautique d'un coup d'oeil ! - Copyright ORBIFLY Décembre 2007 - Disclaimer

ORBIFLY MET'MAP TEAM :

Programmation & Développement : Alexandra Zaïnal
Sur une idée originale de : Baudouin d'Aumeries
Assistance à la programmation : Marc-Olivier Méhu
Soutien technique & logistique : Manuel Goepfert

Contact : metmap@orbifly.com




SOURCES & CREDITS :

   NOAA       Earth
Advisory